Time;durP1;ratioP1;P1;durP2;ratioP2;P2;SDS_P1;SDS_P2;PMS_P1;PMS_P2;Temp;Humidity;BMP_temperature;BMP_pressure;BME280_temperature;BME280_humidity;BME280_pressure;Samples;Min_cycle;Max_cycle;Signal;HPM_P1;HPM_P2
2022/01/12 00:01:14;;;;;;;43.28;15.20;;;-14.60;99.90;;;;;;5033142;28;20442;-79
2022/01/12 00:03:43;;;;;;;48.25;14.55;;;-14.60;99.90;;;;;;5032692;28;20088;-80
2022/01/12 00:06:11;;;;;;;39.65;14.43;;;-14.60;99.90;;;;;;5007403;28;20069;-79
2022/01/12 00:08:39;;;;;;;35.35;13.55;;;-14.50;99.90;;;;;;5031756;28;20064;-80
2022/01/12 00:11:07;;;;;;;47.85;15.55;;;-14.50;99.90;;;;;;5032084;28;20077;-80
2022/01/12 00:13:35;;;;;;;35.22;13.27;;;-14.50;99.90;;;;;;5032456;28;20595;-79
2022/01/12 00:16:04;;;;;;;42.63;14.05;;;-14.60;99.90;;;;;;5013857;28;20087;-79
2022/01/12 00:18:34;;;;;;;38.00;13.60;;;-14.50;99.90;;;;;;5012850;28;20430;-79
2022/01/12 00:21:02;;;;;;;39.42;12.63;;;-14.60;99.90;;;;;;5024579;28;20388;-78
2022/01/12 00:23:29;;;;;;;45.58;14.63;;;-14.60;99.90;;;;;;5018615;28;20073;-79
2022/01/12 00:26:01;;;;;;;36.47;13.35;;;-14.60;99.90;;;;;;5021192;28;20140;-79
2022/01/12 00:34:28;;;;;;;44.60;14.60;;;-14.60;99.90;;;;;;4967178;28;20055;-79
2022/01/12 00:36:55;;;;;;;44.17;14.38;;;-14.60;99.90;;;;;;5009292;28;20153;-77
2022/01/12 00:39:24;;;;;;;46.85;14.30;;;-14.70;99.90;;;;;;5014394;28;20125;-78
2022/01/12 00:41:53;;;;;;;44.15;14.40;;;-14.80;99.90;;;;;;5012234;28;20513;-79
2022/01/12 00:44:22;;;;;;;36.80;12.65;;;-14.80;99.90;;;;;;5010813;28;20572;-79
2022/01/12 00:46:52;;;;;;;40.08;13.75;;;-14.80;99.90;;;;;;5030300;28;20099;-79
2022/01/12 00:49:21;;;;;;;36.75;14.25;;;-14.80;99.90;;;;;;5014639;28;20099;-79
2022/01/12 00:51:54;;;;;;;43.72;14.70;;;-14.80;99.90;;;;;;5014277;28;20041;-80
2022/01/12 00:54:22;;;;;;;42.20;13.07;;;-14.80;99.90;;;;;;5030550;28;20128;-80
2022/01/12 00:56:52;;;;;;;36.65;11.00;;;-14.80;99.90;;;;;;5029120;28;20038;-79
2022/01/12 00:59:20;;;;;;;39.92;13.30;;;-14.80;99.90;;;;;;4995108;28;20475;-79
2022/01/12 01:01:48;;;;;;;31.00;11.82;;;-14.90;99.90;;;;;;5018749;28;20045;-80
2022/01/12 01:04:15;;;;;;;37.80;13.13;;;-14.90;99.90;;;;;;5013657;28;20517;-78
2022/01/12 01:06:43;;;;;;;31.85;11.32;;;-14.90;99.90;;;;;;5013398;28;20045;-79
2022/01/12 01:09:12;;;;;;;37.50;12.65;;;-14.90;99.90;;;;;;4996031;28;20064;-79
2022/01/12 01:11:42;;;;;;;36.45;12.90;;;-14.90;99.90;;;;;;4988444;28;20132;-78
2022/01/12 01:14:20;;;;;;;27.50;9.93;;;-14.90;99.90;;;;;;5030832;28;20049;-80
2022/01/12 01:17:04;;;;;;;36.90;13.23;;;-14.90;99.90;;;;;;5030338;28;20502;-80
2022/01/12 01:27:50;;;;;;;37.63;12.00;;;-14.90;99.90;;;;;;5008521;28;20057;-82
2022/01/12 01:30:18;;;;;;;34.28;11.82;;;-14.80;99.90;;;;;;5001334;28;20438;-82
2022/01/12 01:32:49;;;;;;;34.10;12.68;;;-14.80;99.90;;;;;;5026835;28;20072;-83
2022/01/12 01:35:18;;;;;;;32.05;12.13;;;-14.80;99.90;;;;;;5040209;28;20049;-83
2022/01/12 01:37:47;;;;;;;31.75;12.73;;;-14.80;99.90;;;;;;4981693;28;20056;-84
2022/01/12 01:40:17;;;;;;;36.08;11.88;;;-14.80;99.90;;;;;;5024587;28;20096;-85
2022/01/12 01:43:06;;;;;;;38.63;12.43;;;-14.80;99.90;;;;;;5019791;28;20058;-83
2022/01/12 01:53:57;;;;;;;29.27;10.43;;;-14.90;99.90;;;;;;4993526;28;20069;-83
2022/01/12 01:56:27;;;;;;;23.80;10.55;;;-14.90;99.90;;;;;;5031580;28;20064;-83
2022/01/12 01:58:54;;;;;;;31.48;11.77;;;-14.90;99.90;;;;;;4995781;28;20069;-82
2022/01/12 02:01:24;;;;;;;30.90;11.77;;;-14.90;99.90;;;;;;5017432;28;20068;-83
2022/01/12 02:04:02;;;;;;;27.20;9.70;;;-14.90;99.90;;;;;;5013532;28;20045;-84
2022/01/12 02:06:31;;;;;;;28.10;9.65;;;-14.90;99.90;;;;;;5003631;28;20054;-83
2022/01/12 02:08:59;;;;;;;30.00;11.05;;;-14.90;99.90;;;;;;5015229;28;20041;-83
2022/01/12 02:11:40;;;;;;;23.73;9.55;;;-15.00;99.90;;;;;;4995957;28;20399;-83
2022/01/12 02:14:12;;;;;;;26.80;10.15;;;-15.00;99.90;;;;;;4993148;28;20533;-83
2022/01/12 02:16:51;;;;;;;28.88;11.98;;;-15.00;99.90;;;;;;5012365;28;20502;-82
2022/01/12 02:19:43;;;;;;;29.98;10.65;;;-15.00;99.90;;;;;;5011482;28;20046;-83
2022/01/12 02:36:20;;;;;;;31.80;10.05;;;-15.00;99.90;;;;;;5018504;28;20072;-84
2022/01/12 02:41:35;;;;;;;32.83;8.60;;;-15.00;99.90;;;;;;5007011;28;20045;-84
2022/01/12 02:55:10;;;;;;;24.30;8.90;;;-15.00;99.90;;;;;;5012285;28;20541;-85
2022/01/12 02:57:38;;;;;;;24.02;8.70;;;-14.90;99.90;;;;;;4994176;28;20065;-81
2022/01/12 03:00:11;;;;;;;27.25;9.85;;;-15.00;99.90;;;;;;4997748;28;20048;-81
2022/01/12 03:02:41;;;;;;;26.27;8.48;;;-15.00;99.90;;;;;;5027810;28;20414;-82
2022/01/12 03:05:44;;;;;;;31.33;10.15;;;-15.10;99.90;;;;;;5045618;28;20510;-83
2022/01/12 03:08:15;;;;;;;22.60;9.13;;;-15.10;99.90;;;;;;4998316;28;20052;-82
2022/01/12 03:10:45;;;;;;;27.10;9.05;;;-15.10;99.90;;;;;;5038582;28;20315;-83
2022/01/12 03:13:12;;;;;;;28.05;10.50;;;-15.10;99.90;;;;;;5029556;28;20049;-84
2022/01/12 03:15:41;;;;;;;23.08;8.80;;;-15.10;99.90;;;;;;5004572;28;20537;-83
2022/01/12 03:18:13;;;;;;;21.60;7.32;;;-15.10;99.90;;;;;;5011290;28;20054;-83
2022/01/12 03:20:41;;;;;;;22.38;8.65;;;-15.20;99.90;;;;;;5012087;28;20080;-84
2022/01/12 03:23:10;;;;;;;20.23;8.48;;;-15.20;99.90;;;;;;4986723;28;20042;-84
2022/01/12 03:25:37;;;;;;;23.35;9.05;;;-15.30;99.90;;;;;;5028639;28;20108;-84
2022/01/12 03:28:07;;;;;;;18.90;7.47;;;-15.30;99.90;;;;;;5023941;28;20084;-84
2022/01/12 03:30:47;;;;;;;22.30;8.30;;;-15.40;99.90;;;;;;5015805;28;20049;-82
2022/01/12 03:33:30;;;;;;;23.33;8.32;;;-15.30;99.90;;;;;;5007499;28;20077;-84
2022/01/12 04:05:09;;;;;;;14.95;6.95;;;-15.70;99.90;;;;;;5016725;28;20049;-85
2022/01/12 04:10:22;;;;;;;9.25;3.38;;;-15.90;99.90;;;;;;4997350;28;20045;-83
2022/01/12 04:12:50;;;;;;;25.55;8.15;;;-15.90;99.90;;;;;;4981581;28;20041;-83
2022/01/12 04:15:17;;;;;;;29.90;8.55;;;-15.90;99.90;;;;;;5031138;28;20061;-83
2022/01/12 04:17:44;;;;;;;17.85;8.10;;;-15.90;99.90;;;;;;5015228;28;20493;-83
2022/01/12 04:20:21;;;;;;;25.95;8.63;;;-15.90;99.90;;;;;;4998956;28;20128;-83
2022/01/12 04:25:43;;;;;;;24.88;7.78;;;-15.90;99.90;;;;;;5013595;28;20107;-87
2022/01/12 04:28:22;;;;;;;15.90;7.28;;;-15.90;99.90;;;;;;5001547;28;20053;-83
2022/01/12 04:30:51;;;;;;;23.08;9.32;;;-15.90;99.90;;;;;;5005413;28;20149;-84
2022/01/12 04:33:31;;;;;;;25.02;8.30;;;-15.90;99.90;;;;;;4997037;28;20496;-86
2022/01/12 04:36:02;;;;;;;23.23;8.50;;;-15.90;99.90;;;;;;5013334;28;20049;-90
2022/01/12 04:38:55;;;;;;;19.45;6.70;;;-15.80;99.90;;;;;;4990028;28;20049;-91
2022/01/12 04:41:28;;;;;;;24.70;8.38;;;-15.80;99.90;;;;;;5018695;28;20075;-87
2022/01/12 04:44:02;;;;;;;19.45;7.55;;;-15.70;99.90;;;;;;5013772;28;20054;-86
2022/01/12 04:47:02;;;;;;;20.17;7.60;;;-15.70;99.90;;;;;;4979650;28;20099;-82
2022/01/12 04:49:47;;;;;;;24.63;9.70;;;-15.70;99.90;;;;;;5007588;28;20092;-82
2022/01/12 04:52:21;;;;;;;21.52;7.53;;;-15.80;99.90;;;;;;5027438;28;20510;-82
2022/01/12 04:54:58;;;;;;;22.10;8.73;;;-15.90;99.90;;;;;;4994720;28;20064;-82
2022/01/12 05:00:36;;;;;;;16.85;6.63;;;-15.80;99.90;;;;;;4986636;28;20274;-85
2022/01/12 05:06:49;;;;;;;19.52;7.82;;;-15.90;99.90;;;;;;4995889;28;20049;-82
2022/01/12 05:14:07;;;;;;;12.43;5.78;;;-15.80;99.90;;;;;;4975182;28;20423;-90
2022/01/12 05:16:49;;;;;;;14.13;5.25;;;-15.90;99.90;;;;;;5009356;28;20060;-87
2022/01/12 05:24:10;;;;;;;17.63;6.75;;;-15.80;99.90;;;;;;5010349;28;20050;-83
2022/01/12 05:30:57;;;;;;;11.60;5.88;;;-15.80;99.90;;;;;;4975785;28;20064;-85
2022/01/12 05:33:30;;;;;;;19.33;6.57;;;-15.80;99.90;;;;;;4992572;28;21166;-84
2022/01/12 05:36:03;;;;;;;16.83;5.30;;;-15.70;99.90;;;;;;5041052;28;20056;-85
2022/01/12 05:38:38;;;;;;;15.75;6.03;;;-15.70;99.90;;;;;;5027552;28;20037;-85
2022/01/12 05:41:14;;;;;;;8.18;4.20;;;-15.60;99.90;;;;;;5038117;28;20069;-83
2022/01/12 05:43:48;;;;;;;12.40;5.97;;;-15.60;99.90;;;;;;5045053;28;20517;-85
2022/01/12 05:46:21;;;;;;;16.15;5.80;;;-15.60;99.90;;;;;;5028712;28;20049;-85
2022/01/12 05:51:40;;;;;;;12.75;5.15;;;-15.60;99.90;;;;;;5046279;28;20049;-86
2022/01/12 05:54:12;;;;;;;15.77;6.85;;;-15.60;99.90;;;;;;5029066;28;20103;-85
2022/01/12 05:56:41;;;;;;;14.77;5.50;;;-15.60;99.90;;;;;;5013036;28;20136;-84
2022/01/12 05:59:20;;;;;;;12.27;5.50;;;-15.60;99.90;;;;;;4998681;28;20103;-86
2022/01/12 06:02:10;;;;;;;16.00;6.35;;;-15.60;99.90;;;;;;5014552;28;20287;-83
2022/01/12 06:04:49;;;;;;;15.02;6.95;;;-15.50;99.90;;;;;;5029440;28;20436;-83
2022/01/12 06:07:32;;;;;;;;;;;;;;;;;;;;;
2022/01/12 06:10:06;;;;;;;13.98;5.20;;;-15.50;99.90;;;;;;4991547;28;20394;-83
2022/01/12 06:12:44;;;;;;;13.90;4.82;;;-15.50;99.90;;;;;;5044486;28;20046;-82
2022/01/12 06:15:26;;;;;;;14.93;4.90;;;-15.40;99.90;;;;;;5011813;28;20156;-87
2022/01/12 06:17:56;;;;;;;11.70;5.20;;;-15.40;99.90;;;;;;5009584;28;20056;-85
2022/01/12 06:20:27;;;;;;;17.48;5.78;;;-15.40;99.90;;;;;;5029348;28;20856;-87
2022/01/12 06:23:18;;;;;;;20.40;7.03;;;-15.50;99.90;;;;;;4995363;28;20132;-88
2022/01/12 06:26:15;;;;;;;21.98;6.20;;;-15.50;99.90;;;;;;4990122;28;20053;-87
2022/01/12 06:29:24;;;;;;;12.55;5.70;;;-15.40;99.90;;;;;;5026591;28;20045;-87
2022/01/12 06:31:57;;;;;;;16.17;6.72;;;-15.40;99.90;;;;;;5007769;28;20045;-86
2022/01/12 06:34:27;;;;;;;14.30;5.50;;;-15.50;99.90;;;;;;5027273;28;20497;-86
2022/01/12 06:36:56;;;;;;;13.52;6.00;;;-15.40;99.90;;;;;;4995125;28;20041;-88
2022/01/12 06:39:25;;;;;;;15.27;6.43;;;-15.40;99.90;;;;;;5028628;28;20520;-83
2022/01/12 06:41:56;;;;;;;14.90;5.75;;;-15.30;99.90;;;;;;5010025;28;20493;-87
2022/01/12 06:44:25;;;;;;;11.23;6.28;;;-15.30;99.90;;;;;;5008291;28;20459;-85
2022/01/12 06:46:58;;;;;;;14.32;6.75;;;-15.30;99.90;;;;;;4993252;28;20575;-86
2022/01/12 06:49:25;;;;;;;9.87;4.30;;;-15.20;99.90;;;;;;5003467;28;20050;-84
2022/01/12 06:51:53;;;;;;;14.48;5.20;;;-15.10;99.90;;;;;;4994009;28;20056;-86
2022/01/12 06:54:25;;;;;;;11.07;5.40;;;-15.00;99.90;;;;;;5024167;28;20061;-85
2022/01/12 06:57:02;;;;;;;14.35;6.63;;;-15.00;99.90;;;;;;5028720;28;20525;-86
2022/01/12 06:59:34;;;;;;;13.75;5.95;;;-15.00;99.90;;;;;;4994387;28;20080;-82
2022/01/12 07:02:07;;;;;;;13.27;6.07;;;-15.00;99.90;;;;;;5012167;28;20061;-86
2022/01/12 07:04:46;;;;;;;16.52;7.82;;;-15.00;99.90;;;;;;5012771;28;20068;-85
2022/01/12 07:07:14;;;;;;;18.20;5.80;;;-15.00;99.90;;;;;;5014162;28;20049;-85
2022/01/12 07:10:05;;;;;;;16.60;6.03;;;-15.00;99.90;;;;;;4998949;28;20046;-86
2022/01/12 07:12:56;;;;;;;16.90;5.72;;;-14.80;99.90;;;;;;4959265;28;20049;-85
2022/01/12 07:15:24;;;;;;;16.52;5.53;;;-14.70;99.90;;;;;;5012638;28;20423;-84
2022/01/12 07:21:32;;;;;;;16.65;6.55;;;-14.50;99.90;;;;;;5011988;28;20565;-85
2022/01/12 07:24:03;;;;;;;13.48;5.20;;;-14.40;99.90;;;;;;4998605;28;20149;-85
2022/01/12 07:26:30;;;;;;;13.05;6.18;;;-14.40;99.90;;;;;;4993358;28;20056;-84
2022/01/12 07:28:58;;;;;;;13.45;6.07;;;-14.20;99.90;;;;;;5028442;28;20387;-84
2022/01/12 07:31:37;;;;;;;18.02;6.30;;;-14.10;99.90;;;;;;5033294;28;20143;-83
2022/01/12 07:34:10;;;;;;;14.25;6.10;;;-14.10;99.90;;;;;;5011395;28;20399;-86
2022/01/12 07:36:38;;;;;;;;;;;-13.90;99.90;;;;;;5030449;28;20568;-87
2022/01/12 07:39:05;;;;;;;24.55;6.35;;;-13.90;99.90;;;;;;5013975;28;20295;-84
2022/01/12 07:41:33;;;;;;;18.98;7.22;;;-13.80;99.90;;;;;;5022074;28;20114;-83
2022/01/12 07:44:01;;;;;;;16.38;7.70;;;-13.90;99.90;;;;;;5033269;28;20049;-84
2022/01/12 07:46:31;;;;;;;19.58;6.45;;;-13.80;99.90;;;;;;5033421;28;20053;-84
2022/01/12 07:48:58;;;;;;;21.73;6.40;;;-13.90;99.90;;;;;;4998817;28;20457;-85
2022/01/12 07:51:27;;;;;;;16.27;7.00;;;-13.90;99.90;;;;;;5015190;28;20058;-86
2022/01/12 07:53:54;;;;;;;15.38;6.88;;;-13.80;99.90;;;;;;5032808;28;20049;-85
2022/01/12 07:56:22;;;;;;;13.13;4.82;;;-13.80;99.90;;;;;;5015519;28;20095;-84
2022/01/12 07:58:49;;;;;;;17.05;7.55;;;-13.90;99.90;;;;;;5015312;28;20042;-86
2022/01/12 08:01:17;;;;;;;17.27;7.20;;;-13.80;99.90;;;;;;4997949;28;20049;-86
2022/01/12 08:03:45;;;;;;;22.48;7.93;;;-13.90;99.90;;;;;;5032696;28;20045;-85
2022/01/12 08:06:13;;;;;;;7.25;3.80;;;-13.90;99.90;;;;;;5015849;28;20119;-86
2022/01/12 08:08:41;;;;;;;22.27;8.07;;;-13.90;99.90;;;;;;5015301;28;20053;-85
2022/01/12 08:11:09;;;;;;;17.48;7.60;;;-13.90;99.90;;;;;;5031969;28;20111;-86
2022/01/12 08:13:36;;;;;;;18.33;7.43;;;-14.00;99.90;;;;;;5032304;28;20438;-85
2022/01/12 08:16:04;;;;;;;21.35;7.95;;;-14.00;99.90;;;;;;5031850;28;20053;-80
2022/01/12 08:18:34;;;;;;;21.33;8.80;;;-13.90;99.90;;;;;;5032447;28;20049;-78
2022/01/12 08:21:05;;;;;;;22.30;7.80;;;-13.80;99.90;;;;;;5031954;28;20057;-78
2022/01/12 08:23:35;;;;;;;18.80;7.53;;;-13.90;99.90;;;;;;5030132;28;20525;-79
2022/01/12 08:26:04;;;;;;;18.75;7.70;;;-13.80;99.90;;;;;;5027876;28;20071;-80
2022/01/12 08:28:34;;;;;;;21.08;8.40;;;-13.70;99.90;;;;;;5029195;28;20037;-83
2022/01/12 08:31:02;;;;;;;21.95;7.75;;;-13.80;99.90;;;;;;5032311;28;20476;-81
2022/01/12 08:33:29;;;;;;;23.13;7.90;;;-13.90;99.90;;;;;;4997917;28;20148;-83
2022/01/12 08:35:57;;;;;;;19.65;7.25;;;-13.90;99.90;;;;;;5031495;28;20057;-84
2022/01/12 08:38:25;;;;;;;21.20;7.88;;;-13.90;99.90;;;;;;5030992;28;20140;-83
2022/01/12 08:41:00;;;;;;;25.20;8.57;;;-14.00;99.90;;;;;;5031358;28;20453;-82
2022/01/12 08:43:35;;;;;;;17.38;5.35;;;-14.00;99.90;;;;;;5045605;28;20457;-80
2022/01/12 08:46:06;;;;;;;20.23;9.88;;;-14.00;99.90;;;;;;5031055;28;20048;-83
2022/01/12 08:48:41;;;;;;;23.52;8.23;;;-14.00;99.90;;;;;;5032111;28;20107;-83
2022/01/12 08:51:09;;;;;;;36.25;10.20;;;-14.10;99.90;;;;;;5013846;28;20076;-83
2022/01/12 08:53:40;;;;;;;19.95;7.65;;;-14.20;99.90;;;;;;5030218;28;20045;-83
2022/01/12 08:56:08;;;;;;;19.42;7.85;;;-14.20;99.90;;;;;;5032664;28;20049;-83
2022/01/12 08:58:37;;;;;;;20.35;8.13;;;-14.30;99.90;;;;;;5031783;28;20508;-81
2022/01/12 09:01:09;;;;;;;20.80;8.00;;;-14.10;99.90;;;;;;5014057;28;20042;-83
2022/01/12 09:03:37;;;;;;;24.80;8.63;;;-14.10;99.90;;;;;;5031856;28;20054;-83
2022/01/12 09:06:06;;;;;;;26.27;8.98;;;-14.10;99.90;;;;;;5031780;28;20037;-82
2022/01/12 09:08:38;;;;;;;34.53;10.18;;;-14.00;99.90;;;;;;5014028;28;20597;-82
2022/01/12 09:11:14;;;;;;;24.45;10.00;;;-14.00;99.90;;;;;;5013374;28;20548;-83
2022/01/12 09:13:46;;;;;;;23.45;8.90;;;-13.80;99.90;;;;;;5031082;28;20591;-81
2022/01/12 09:16:14;;;;;;;17.42;7.38;;;-13.70;99.90;;;;;;5030168;28;20057;-82
2022/01/12 09:18:45;;;;;;;28.08;8.93;;;-13.60;99.90;;;;;;5010513;28;20058;-83
2022/01/12 09:21:12;;;;;;;24.77;10.32;;;-13.50;99.90;;;;;;5029953;28;20132;-81
2022/01/12 09:23:40;;;;;;;18.48;8.95;;;-13.50;99.90;;;;;;5030001;28;20053;-79
2022/01/12 09:26:08;;;;;;;24.02;7.80;;;-13.50;99.90;;;;;;5044682;28;20046;-80
2022/01/12 09:28:36;;;;;;;17.42;7.45;;;-13.40;99.90;;;;;;5031459;28;20077;-80
2022/01/12 09:31:11;;;;;;;21.50;8.05;;;-13.30;99.90;;;;;;5031036;28;20049;-82
2022/01/12 09:33:41;;;;;;;24.83;8.43;;;-13.10;99.90;;;;;;5031657;28;20395;-82
2022/01/12 09:36:09;;;;;;;24.50;7.43;;;-13.00;99.90;;;;;;5012549;28;20052;-81
2022/01/12 09:38:39;;;;;;;26.90;10.88;;;-12.80;99.90;;;;;;5030811;28;20089;-81
2022/01/12 09:41:07;;;;;;;21.33;9.43;;;-12.70;99.90;;;;;;5002589;28;20164;-81
2022/01/12 09:43:38;;;;;;;21.17;9.13;;;-12.60;99.90;;;;;;5012662;28;20052;-81
2022/01/12 09:46:06;;;;;;;19.25;8.98;;;-12.50;99.90;;;;;;5030688;28;20414;-81
2022/01/12 09:48:36;;;;;;;29.88;9.32;;;-12.50;99.90;;;;;;5030266;28;20049;-82
2022/01/12 09:51:07;;;;;;;21.88;9.00;;;-12.50;99.90;;;;;;5026842;28;20042;-80
2022/01/12 09:53:36;;;;;;;20.55;9.00;;;-12.40;99.90;;;;;;5030558;28;20055;-79
2022/01/12 09:56:16;;;;;;;24.02;8.90;;;-12.40;99.90;;;;;;5012604;28;20057;-80
2022/01/12 09:58:45;;;;;;;26.30;8.93;;;-12.30;99.90;;;;;;5007120;28;20073;-79
2022/01/12 10:01:22;;;;;;;22.50;8.70;;;-12.20;99.90;;;;;;5030415;28;20141;-79
2022/01/12 10:03:50;;;;;;;21.08;9.13;;;-12.20;99.90;;;;;;5028261;28;20087;-81
2022/01/12 10:06:19;;;;;;;28.17;7.97;;;-12.00;99.90;;;;;;5010861;28;20049;-78
2022/01/12 10:08:46;;;;;;;21.67;8.57;;;-12.00;99.90;;;;;;4994037;28;20080;-81
2022/01/12 10:11:15;;;;;;;18.80;8.18;;;-12.00;99.90;;;;;;5027202;28;20053;-80
2022/01/12 10:17:31;;;;;;;19.02;7.60;;;-12.00;99.90;;;;;;5040983;28;20046;-83
2022/01/12 10:20:08;;;;;;;25.00;8.45;;;-11.90;99.90;;;;;;5029625;28;20581;-83
2022/01/12 10:22:36;;;;;;;18.23;8.50;;;-11.80;99.90;;;;;;5026135;28;20114;-82
2022/01/12 10:25:16;;;;;;;22.30;7.72;;;-11.70;99.90;;;;;;5018345;28;20042;-83
2022/01/12 10:27:46;;;;;;;20.15;8.35;;;-11.60;99.90;;;;;;5009194;28;20050;-82
2022/01/12 10:30:22;;;;;;;21.08;8.38;;;-11.50;99.90;;;;;;4993134;28;20530;-82
2022/01/12 10:33:03;;;;;;;27.42;9.52;;;-11.40;99.90;;;;;;4993428;28;20108;-82
2022/01/12 10:35:37;;;;;;;32.45;9.13;;;-11.40;99.90;;;;;;5018383;28;20058;-83
2022/01/12 10:38:09;;;;;;;23.10;8.68;;;-11.30;99.90;;;;;;5007481;28;20119;-81
2022/01/12 10:40:50;;;;;;;28.40;9.02;;;-11.20;99.90;;;;;;5012467;28;20050;-82
2022/01/12 10:43:36;;;;;;;24.70;8.77;;;-11.10;99.90;;;;;;5013149;28;20529;-80
2022/01/12 10:46:10;;;;;;;21.80;7.85;;;-11.00;99.90;;;;;;5032434;28;20080;-81
2022/01/12 10:48:45;;;;;;;46.58;8.93;;;-10.90;99.90;;;;;;5033349;28;20072;-81
2022/01/12 10:51:21;;;;;;;22.83;8.18;;;-10.90;99.90;;;;;;5031468;28;20045;-86
2022/01/12 10:53:56;;;;;;;19.13;7.93;;;-10.90;99.90;;;;;;5034031;28;20060;-83
2022/01/12 10:56:27;;;;;;;16.92;6.95;;;-10.90;99.90;;;;;;5039081;28;20053;-81
2022/01/12 10:58:59;;;;;;;19.88;8.13;;;-10.70;99.90;;;;;;5028677;28;20080;-82
2022/01/12 11:01:29;;;;;;;17.48;7.75;;;-10.60;99.90;;;;;;5029351;28;20152;-80
2022/01/12 11:03:59;;;;;;;15.15;7.78;;;-10.40;99.90;;;;;;5030219;28;20476;-81
2022/01/12 11:06:31;;;;;;;16.83;7.15;;;-10.30;99.90;;;;;;5030689;28;20506;-82
2022/01/12 11:09:01;;;;;;;14.90;6.57;;;-10.20;99.90;;;;;;5043065;28;20139;-82
2022/01/12 11:11:32;;;;;;;17.88;6.82;;;-10.10;99.90;;;;;;5050264;28;20059;-81
2022/01/12 11:14:01;;;;;;;15.68;6.75;;;-10.00;99.90;;;;;;5047764;28;20144;-84
2022/01/12 11:16:31;;;;;;;22.30;7.80;;;-10.00;99.90;;;;;;5049292;28;20060;-82
2022/01/12 11:19:02;;;;;;;22.05;7.70;;;-10.00;99.90;;;;;;5047058;28;20041;-86
2022/01/12 11:21:41;;;;;;;16.65;7.10;;;-9.90;99.90;;;;;;4992180;28;20053;-82
2022/01/12 11:24:13;;;;;;;16.90;6.80;;;-9.80;99.90;;;;;;5027876;28;20144;-84
2022/01/12 11:26:50;;;;;;;14.90;6.28;;;-9.90;99.90;;;;;;5010598;28;20395;-85
2022/01/12 11:29:27;;;;;;;14.13;5.88;;;-9.90;99.90;;;;;;5021728;28;20049;-84
2022/01/12 11:32:06;;;;;;;13.02;5.55;;;-9.80;99.90;;;;;;5008930;28;20073;-81
2022/01/12 11:34:39;;;;;;;15.32;6.65;;;-9.90;99.90;;;;;;5003248;28;20533;-81
2022/01/12 11:37:17;;;;;;;14.98;6.50;;;-9.90;99.90;;;;;;5028584;28;20068;-83
2022/01/12 11:39:48;;;;;;;16.88;6.80;;;-9.90;99.90;;;;;;5029609;28;20502;-85
2022/01/12 11:42:17;;;;;;;14.48;6.38;;;-9.80;99.90;;;;;;5030276;28;20053;-81
2022/01/12 11:44:44;;;;;;;12.55;7.38;;;-9.70;99.90;;;;;;5022967;28;20613;-84
2022/01/12 11:47:21;;;;;;;14.25;7.55;;;-9.70;99.90;;;;;;5033123;28;20088;-82
2022/01/12 11:49:54;;;;;;;12.95;6.55;;;-9.70;99.90;;;;;;5033274;28;20195;-86
2022/01/12 11:52:29;;;;;;;;;;;-9.60;99.90;;;;;;4999386;28;20049;-81
2022/01/12 11:55:13;;;;;;;16.23;6.35;;;-9.60;99.90;;;;;;5031419;28;20019;-84
2022/01/12 11:57:52;;;;;;;15.82;6.43;;;-9.60;99.90;;;;;;4978384;28;20148;-82
2022/01/12 12:00:39;;;;;;;13.43;6.45;;;-9.60;99.90;;;;;;4994841;28;20073;-82
2022/01/12 12:03:15;;;;;;;11.35;6.00;;;-9.60;99.90;;;;;;5015917;28;20458;-82
2022/01/12 12:05:45;;;;;;;10.68;4.95;;;-9.50;99.90;;;;;;4997525;28;20464;-80
2022/01/12 12:08:25;;;;;;;14.10;5.65;;;-9.50;99.90;;;;;;5032417;28;20049;-82
2022/01/12 12:10:54;;;;;;;12.23;4.95;;;-9.50;99.90;;;;;;5047517;28;20525;-83
2022/01/12 12:13:23;;;;;;;12.25;5.80;;;-9.50;99.90;;;;;;5015165;28;20045;-85
2022/01/12 12:15:54;;;;;;;18.33;5.70;;;-9.40;99.90;;;;;;5032243;28;20111;-83
2022/01/12 12:18:26;;;;;;;11.90;4.78;;;-9.40;99.90;;;;;;5031904;28;20056;-79
2022/01/12 12:21:12;;;;;;;12.73;5.65;;;-9.40;99.90;;;;;;5014602;28;20136;-82
2022/01/12 12:23:41;;;;;;;8.98;4.85;;;-9.40;99.90;;;;;;5010608;28;20074;-82
2022/01/12 12:26:16;;;;;;;12.57;5.28;;;-9.30;99.90;;;;;;5030184;28;20068;-83
2022/01/12 12:28:53;;;;;;;16.17;5.35;;;-9.30;99.90;;;;;;5031973;28;20057;-83
2022/01/12 12:31:38;;;;;;;12.00;5.53;;;-9.20;99.90;;;;;;5032488;28;20498;-84
2022/01/12 12:34:35;;;;;;;14.75;5.28;;;-9.10;99.90;;;;;;5004260;28;20410;-83
2022/01/12 12:37:08;;;;;;;9.38;4.53;;;-9.00;99.90;;;;;;5031064;28;20053;-76
2022/01/12 12:39:39;;;;;;;13.15;5.57;;;-9.00;99.90;;;;;;5004986;28;20052;-75
2022/01/12 12:42:16;;;;;;;13.95;6.22;;;-8.90;99.90;;;;;;5013386;28;20057;-85
2022/01/12 12:44:45;;;;;;;13.38;5.57;;;-8.90;99.90;;;;;;5028027;28;20140;-88
2022/01/12 12:47:26;;;;;;;19.27;6.60;;;-8.80;99.90;;;;;;5014911;28;20560;-91
2022/01/12 12:50:00;;;;;;;14.88;5.53;;;-8.80;99.90;;;;;;5028969;28;20049;-91
2022/01/12 12:52:39;;;;;;;12.27;4.90;;;-8.80;99.90;;;;;;5032913;28;20042;-87
2022/01/12 12:55:28;;;;;;;15.98;5.18;;;-8.80;99.90;;;;;;5030190;28;20048;-89
2022/01/12 12:58:02;;;;;;;13.00;5.45;;;-8.70;99.90;;;;;;5024096;28;20049;-84
2022/01/12 13:00:32;;;;;;;12.32;5.05;;;-8.60;99.90;;;;;;5021458;28;20038;-85
2022/01/12 13:03:28;;;;;;;;;;;;;;;;;;;;;
2022/01/12 13:06:07;;;;;;;15.45;5.32;;;-8.60;99.90;;;;;;5009542;28;20049;-85
2022/01/12 13:08:38;;;;;;;14.32;5.22;;;-8.60;99.90;;;;;;4997245;28;20042;-85
2022/01/12 13:11:11;;;;;;;17.38;5.40;;;-8.60;99.90;;;;;;5031679;28;20053;-86
2022/01/12 13:13:41;;;;;;;11.52;5.85;;;-8.60;99.90;;;;;;5032192;28;20049;-91
2022/01/12 13:16:11;;;;;;;15.20;5.88;;;-8.60;99.90;;;;;;5035164;28;20068;-87
2022/01/12 13:19:03;;;;;;;9.80;5.30;;;-8.60;99.90;;;;;;5047412;28;20049;-89
2022/01/12 13:22:28;;;;;;;11.82;6.28;;;-8.60;99.90;;;;;;5011477;28;20049;-85
2022/01/12 13:25:09;;;;;;;13.30;5.93;;;-8.60;99.90;;;;;;5020407;28;20137;-85
2022/01/12 13:27:44;;;;;;;15.57;6.40;;;-8.50;99.90;;;;;;5015337;28;20506;-85
2022/01/12 13:30:28;;;;;;;16.48;6.68;;;-8.40;99.90;;;;;;5012354;28;20128;-82
2022/01/12 13:33:01;;;;;;;12.10;6.03;;;-8.50;99.90;;;;;;5009938;28;20155;-81
2022/01/12 13:35:35;;;;;;;14.77;5.70;;;-8.40;99.90;;;;;;5011475;28;20041;-84
2022/01/12 13:38:10;;;;;;;15.48;6.57;;;-8.40;99.90;;;;;;5012245;28;20130;-81
2022/01/12 13:40:42;;;;;;;14.57;6.40;;;-8.40;99.90;;;;;;5013592;28;20560;-82
2022/01/12 13:43:14;;;;;;;11.63;5.30;;;-8.30;99.90;;;;;;5029478;28;20092;-83
2022/01/12 13:45:59;;;;;;;16.92;5.90;;;-8.30;99.90;;;;;;5027847;28;20050;-85
2022/01/12 13:48:32;;;;;;;14.45;6.03;;;-8.30;99.90;;;;;;5029788;28;20077;-86
2022/01/12 13:51:17;;;;;;;;;;;;;;;;;;;;;
2022/01/12 13:54:51;;;;;;;11.60;5.50;;;-8.40;99.90;;;;;;5019620;28;20543;-86
2022/01/12 13:57:45;;;;;;;13.93;5.50;;;-8.40;99.90;;;;;;5015830;28;20057;-85
2022/01/12 14:00:29;;;;;;;12.70;5.97;;;-8.30;99.90;;;;;;5029285;28;20052;-86
2022/01/12 14:03:05;;;;;;;15.50;6.43;;;-8.30;99.90;;;;;;5011741;28;20056;-85
2022/01/12 14:05:38;;;;;;;12.63;5.65;;;-8.30;99.90;;;;;;5003778;28;20041;-86
2022/01/12 14:08:14;;;;;;;7.68;3.80;;;-8.30;99.90;;;;;;5029471;28;20107;-85
2022/01/12 14:10:44;;;;;;;13.25;5.50;;;-8.20;99.90;;;;;;5011604;28;20041;-85
2022/01/12 14:13:13;;;;;;;9.65;5.28;;;-8.20;99.90;;;;;;5012387;28;20054;-80
2022/01/12 14:15:46;;;;;;;13.18;5.70;;;-8.20;99.90;;;;;;5029519;28;20054;-82
2022/01/12 14:18:18;;;;;;;;;;;-8.20;99.90;;;;;;5013808;28;20045;-85
2022/01/12 14:20:47;;;;;;;14.65;5.97;;;-8.20;99.90;;;;;;5026192;28;19952;-83
2022/01/12 14:23:17;;;;;;;13.82;5.70;;;-8.10;99.90;;;;;;5010397;28;20048;-85
2022/01/12 14:25:48;;;;;;;11.05;5.65;;;-8.10;99.90;;;;;;5022898;28;20056;-84
2022/01/12 14:28:19;;;;;;;13.50;6.60;;;-8.00;99.90;;;;;;5027482;28;20533;-83
2022/01/12 14:30:47;;;;;;;12.10;6.40;;;-8.10;99.90;;;;;;5017303;28;20060;-84
2022/01/12 14:33:15;;;;;;;10.77;5.70;;;-8.10;99.90;;;;;;5029706;28;20044;-87
2022/01/12 14:35:45;;;;;;;9.57;5.82;;;-8.00;99.90;;;;;;5029258;28;20053;-84
2022/01/12 14:38:13;;;;;;;15.68;6.22;;;-8.00;99.90;;;;;;5030000;28;20060;-82
2022/01/12 14:40:44;;;;;;;10.95;5.50;;;-7.90;99.90;;;;;;5030161;28;20042;-84
2022/01/12 14:43:13;;;;;;;18.77;6.13;;;-7.90;99.90;;;;;;5029944;28;20050;-83
2022/01/12 14:45:46;;;;;;;13.55;5.40;;;-7.90;99.90;;;;;;5028833;28;20053;-80
2022/01/12 14:48:17;;;;;;;12.90;5.35;;;-7.90;99.90;;;;;;5029488;28;20060;-82
2022/01/12 14:50:49;;;;;;;10.38;4.95;;;-7.90;99.90;;;;;;5029155;28;20533;-85
2022/01/12 14:53:21;;;;;;;9.18;4.88;;;-8.00;99.90;;;;;;5020737;28;20054;-84
2022/01/12 14:55:54;;;;;;;12.02;5.10;;;-8.10;99.90;;;;;;5005414;28;20477;-85
2022/01/12 14:58:26;;;;;;;13.90;6.10;;;-8.10;99.90;;;;;;5014269;28;20081;-84
2022/01/12 15:00:56;;;;;;;14.35;5.80;;;-8.00;99.90;;;;;;5015982;28;20105;-86